Ty Lotus — DSNU7 — position and weather

sailwx.info

Track history (hours):
 
Tides and Currents Weather Stations Pressure Air Temp Water Temp Dewpoint Dewpoint Depression Visibility Wind Speed Wind Dir Waves Ship Positions

Ty Lotus

Last reported at 2016-Feb-13 16:29 UTC. Time now 2016-Feb-13 19:22 UTC.
Position N 35°41' E 139°58'.

Length 80 m; draft 5.7 m.

Type: Cargo ship. MMSI: 440324000.

Date/timePositionNaut miles runAvg speedWind from/ knotsBaromVisibWave heightAir tempDewpointWater temp
2016-Feb-13 16:29N 35°41' E 139°58'0 0.0
2016-Feb-13 14:28N 35°41' E 139°58'0 0.0
2016-Feb-13 12:13N 35°41' E 139°58'0 0.0
2016-Feb-13 11:33N 35°41' E 139°58'0 0.0
2016-Feb-13 10:10N 35°41' E 139°58'0 0.0
2016-Feb-13 09:31N 35°41' E 139°58'0 0.0
2016-Feb-13 08:31N 35°41' E 139°58'0 0.0
2016-Feb-13 07:33N 35°41' E 139°58'0 0.0
2016-Feb-13 05:29N 35°41' E 139°58'0 0.0
2016-Feb-13 04:11N 35°41' E 139°58'0 0.0
2016-Feb-13 03:23N 35°41' E 139°58'0 0.0
2016-Feb-13 02:29N 35°41' E 139°58'0 0.0
2016-Feb-13 01:29N 35°41' E 139°58'0 0.0
2016-Feb-13 00:23N 35°41' E 139°58'0 0.0
2016-Feb-12 23:23N 35°41' E 139°58'0 0.0
2016-Feb-12 21:29N 35°41' E 139°58'0 0.0
2016-Feb-12 20:23N 35°41' E 139°58'0 0.0
2016-Feb-12 19:29N 35°41' E 139°58'0 0.0
2016-Feb-12 17:25N 35°41' E 139°58'0 0.0
2016-Feb-12 16:04N 35°41' E 139°58'0 0.0
2016-Feb-12 15:10N 35°41' E 139°58'0 0.0
2016-Feb-12 14:04N 35°41' E 139°58'0 0.0
2016-Feb-12 13:16N 35°41' E 139°58'0 0.0
2016-Feb-12 11:28N 35°41' E 139°58'0 0.0
2016-Feb-12 08:33N 35°41' E 139°58'  
2016-Feb-09 09:30N 35°35' E 139°58'1 0.7
2016-Feb-09 08:33N 35°35' E 139°57'1010.5
2016-Feb-09 07:33N 35°27' E 139°49'10 9.8
2016-Feb-09 06:32N 35°17' E 139°45'1010.2
2016-Feb-09 05:32N 35°07' E 139°46'236 8.4
2016-Feb-08 01:32N 34°27' E 135°02'9 9.1
2016-Feb-08 00:34N 34°36' E 135°03'240 8.6
2016-Feb-06 20:32N 33°52' E 130°17'11 9.1
2016-Feb-06 19:21N 33°45' E 130°07'7 9.2
2016-Feb-06 18:32N 33°42' E 129°58'  
Track history (hours):
 
Tides and Currents Weather Stations Pressure Air Temp Water Temp Dewpoint Dewpoint Depression Visibility Wind Speed Wind Dir Waves Ship Positions

Ty Lotus

Last reported at 2016-Feb-13 16:29 UTC. Time now 2016-Feb-13 19:22 UTC.
Position N 35°41' E 139°58'.

Length 80 m; draft 5.7 m.

Type: Cargo ship. MMSI: 440324000.

Date/timePositionNaut miles runAvg speedWind from/ knotsBaromVisibWave heightAir tempDewpointWater temp
2016-Feb-13 16:29N 35°41' E 139°58'0 0.0
2016-Feb-13 14:28N 35°41' E 139°58'0 0.0
2016-Feb-13 12:13N 35°41' E 139°58'0 0.0
2016-Feb-13 11:33N 35°41' E 139°58'0 0.0
2016-Feb-13 10:10N 35°41' E 139°58'0 0.0
2016-Feb-13 09:31N 35°41' E 139°58'0 0.0
2016-Feb-13 08:31N 35°41' E 139°58'0 0.0
2016-Feb-13 07:33N 35°41' E 139°58'0 0.0
2016-Feb-13 05:29N 35°41' E 139°58'0 0.0
2016-Feb-13 04:11N 35°41' E 139°58'0 0.0
2016-Feb-13 03:23N 35°41' E 139°58'0 0.0
2016-Feb-13 02:29N 35°41' E 139°58'0 0.0
2016-Feb-13 01:29N 35°41' E 139°58'0 0.0
2016-Feb-13 00:23N 35°41' E 139°58'0 0.0
2016-Feb-12 23:23N 35°41' E 139°58'0 0.0
2016-Feb-12 21:29N 35°41' E 139°58'0 0.0
2016-Feb-12 20:23N 35°41' E 139°58'0 0.0
2016-Feb-12 19:29N 35°41' E 139°58'0 0.0
2016-Feb-12 17:25N 35°41' E 139°58'0 0.0
2016-Feb-12 16:04N 35°41' E 139°58'0 0.0
2016-Feb-12 15:10N 35°41' E 139°58'0 0.0
2016-Feb-12 14:04N 35°41' E 139°58'0 0.0
2016-Feb-12 13:16N 35°41' E 139°58'0 0.0
2016-Feb-12 11:28N 35°41' E 139°58'0 0.0
2016-Feb-12 08:33N 35°41' E 139°58'  
2016-Feb-09 09:30N 35°35' E 139°58'1 0.7
2016-Feb-09 08:33N 35°35' E 139°57'1010.5
2016-Feb-09 07:33N 35°27' E 139°49'10 9.8
2016-Feb-09 06:32N 35°17' E 139°45'1010.2
2016-Feb-09 05:32N 35°07' E 139°46'236 8.4
2016-Feb-08 01:32N 34°27' E 135°02'9 9.1
2016-Feb-08 00:34N 34°36' E 135°03'240 8.6
2016-Feb-06 20:32N 33°52' E 130°17'11 9.1
2016-Feb-06 19:21N 33°45' E 130°07'7 9.2
2016-Feb-06 18:32N 33°42' E 129°58'  

Dump ship's entire track history